createdAt,value
2019-06-08T00:00:09.844Z,71.49
2019-06-08T00:05:14.744Z,71.31
2019-06-08T00:10:21.152Z,70.87
2019-06-08T00:15:22.471Z,70.68
2019-06-08T00:20:25.272Z,70.74
2019-06-08T00:25:27.999Z,70.73
2019-06-08T00:30:32.836Z,70.70
2019-06-08T00:35:35.712Z,70.76
2019-06-08T00:40:38.462Z,71.05
2019-06-08T00:45:41.282Z,71.14
2019-06-08T00:50:45.725Z,71.50
2019-06-08T00:55:50.082Z,70.69
2019-06-08T01:00:54.739Z,70.72
2019-06-08T01:05:57.989Z,70.74
2019-06-08T01:11:00.687Z,71.00
2019-06-08T01:16:03.516Z,71.33
2019-06-08T01:21:06.382Z,71.91
2019-06-08T01:26:09.347Z,71.90
2019-06-08T01:31:12.081Z,72.17
2019-06-08T01:36:14.793Z,72.54
2019-06-08T01:41:17.502Z,72.90
2019-06-08T01:46:20.200Z,72.91
2019-06-08T01:51:22.925Z,72.84
2019-06-08T01:56:25.650Z,72.61
2019-06-08T02:01:29.837Z,72.09
2019-06-08T02:06:32.672Z,71.87
2019-06-08T02:11:35.423Z,72.48
2019-06-08T02:16:38.153Z,72.92
2019-06-08T02:21:40.852Z,73.08
2019-06-08T02:26:43.567Z,72.83
2019-06-08T02:31:48.155Z,72.69
2019-06-08T02:36:50.910Z,72.56
2019-06-08T02:41:53.621Z,72.59
2019-06-08T02:46:56.382Z,72.24
2019-06-08T02:52:00.311Z,72.05
2019-06-08T02:57:04.114Z,72.49
2019-06-08T03:02:09.318Z,72.49
2019-06-08T03:07:15.596Z,73.15
2019-06-08T03:12:21.925Z,72.93
2019-06-08T03:17:24.627Z,73.24
2019-06-08T03:22:27.334Z,73.46
2019-06-08T03:27:30.064Z,73.58
2019-06-08T03:32:34.844Z,73.16
2019-06-08T03:37:37.850Z,73.12
2019-06-08T03:42:40.747Z,73.11
2019-06-08T03:47:45.160Z,72.93
2019-06-08T03:52:48.078Z,72.83
2019-06-08T03:57:50.813Z,72.34
2019-06-08T04:02:53.539Z,71.68
2019-06-08T04:07:56.254Z,69.93
2019-06-08T04:12:58.984Z,69.12
2019-06-08T04:18:01.781Z,69.44
2019-06-08T04:23:04.493Z,69.34
2019-06-08T04:28:07.234Z,69.83
2019-06-08T04:33:10.019Z,68.54
2019-06-08T04:38:12.730Z,68.19
2019-06-08T04:43:15.447Z,67.46
2019-06-08T04:48:18.182Z,66.50
2019-06-08T04:53:20.915Z,66.34
2019-06-08T04:58:23.655Z,65.48
2019-06-08T05:03:26.396Z,65.38
2019-06-08T05:08:29.107Z,65.59
2019-06-08T05:13:31.866Z,65.62
2019-06-08T05:18:34.567Z,65.50
2019-06-08T05:23:37.302Z,65.23
2019-06-08T05:28:41.062Z,65.17
2019-06-08T05:33:45.443Z,64.86
2019-06-08T05:38:48.298Z,64.14
2019-06-08T05:43:51.065Z,63.69
2019-06-08T05:48:54.466Z,63.12
2019-06-08T05:53:58.114Z,62.33
2019-06-08T05:59:01.108Z,60.01
2019-06-08T06:04:04.109Z,58.20
2019-06-08T06:09:07.631Z,56.80
2019-06-08T06:14:24.603Z,53.86
2019-06-08T06:19:27.409Z,53.04
2019-06-08T06:24:30.161Z,53.24
2019-06-08T06:29:32.937Z,52.87
2019-06-08T06:34:35.657Z,51.52
2019-06-08T06:39:38.390Z,50.86
2019-06-08T06:44:42.064Z,50.03
2019-06-08T06:49:46.287Z,50.09
2019-06-08T06:54:49.164Z,49.48
2019-06-08T06:59:52.032Z,49.91
2019-06-08T07:04:54.879Z,50.06
2019-06-08T07:09:57.618Z,49.87
2019-06-08T07:15:00.366Z,49.19
2019-06-08T07:20:03.458Z,48.77
2019-06-08T07:25:06.318Z,48.36
2019-06-08T07:30:09.317Z,47.72
2019-06-08T07:35:12.134Z,48.38
2019-06-08T07:40:16.004Z,48.38
2019-06-08T07:45:19.063Z,48.57
2019-06-08T07:50:21.831Z,47.91
2019-06-08T07:55:24.656Z,47.38
2019-06-08T08:00:27.472Z,47.01
2019-06-08T08:05:30.185Z,47.15
2019-06-08T08:10:32.895Z,48.00
2019-06-08T08:15:35.612Z,46.46
2019-06-08T08:20:38.464Z,47.14
2019-06-08T08:25:41.179Z,46.25
2019-06-08T08:30:43.905Z,45.70
2019-06-08T08:35:48.212Z,45.44
2019-06-08T08:40:52.829Z,45.19
2019-06-08T08:45:58.262Z,46.18
2019-06-08T08:51:03.266Z,46.58
2019-06-08T08:56:07.365Z,47.25
2019-06-08T09:01:10.083Z,46.99
2019-06-08T09:06:12.787Z,46.82
2019-06-08T09:11:17.494Z,45.63
2019-06-08T09:16:20.176Z,46.51
2019-06-08T09:21:22.959Z,46.24
2019-06-08T09:26:31.084Z,45.99
2019-06-08T09:31:30.985Z,45.38
2019-06-08T09:36:33.844Z,45.83
2019-06-08T09:41:38.031Z,45.26
2019-06-08T09:46:40.929Z,44.59
2019-06-08T09:51:43.843Z,43.81
2019-06-08T09:56:47.846Z,44.45
2019-06-08T10:01:50.708Z,45.28
2019-06-08T10:06:54.331Z,45.46
2019-06-08T10:11:59.570Z,46.67
2019-06-08T10:17:03.586Z,45.71
2019-06-08T10:22:08.381Z,45.28
2019-06-08T10:27:11.668Z,44.54
2019-06-08T10:32:18.006Z,44.99
2019-06-08T10:37:20.985Z,44.70
2019-06-08T10:42:23.843Z,45.20
2019-06-08T10:47:29.562Z,43.95
2019-06-08T10:52:31.227Z,45.26
2019-06-08T10:57:53.964Z,43.98
2019-06-08T11:03:18.395Z,46.35
2019-06-08T11:08:22.371Z,45.79
2019-06-08T11:14:00.988Z,44.55
2019-06-08T11:19:04.756Z,43.40
2019-06-08T11:24:21.631Z,42.54
2019-06-08T11:30:10.824Z,42.20
2019-06-08T11:35:28.585Z,42.42
2019-06-08T11:40:47.733Z,41.22
2019-06-08T11:46:11.789Z,41.97
2019-06-08T11:51:24.380Z,40.90
2019-06-08T11:56:30.069Z,41.55
2019-06-08T12:01:37.933Z,41.79
2019-06-08T12:06:42.717Z,40.48
2019-06-08T12:11:51.289Z,40.62
2019-06-08T12:16:54.513Z,40.81
2019-06-08T12:21:58.140Z,40.40
2019-06-08T12:27:10.132Z,42.16
2019-06-08T12:32:10.480Z,41.88
2019-06-08T12:37:17.865Z,41.97
2019-06-08T12:42:22.940Z,41.79
2019-06-08T12:47:26.715Z,42.04
2019-06-08T12:52:29.808Z,40.76
2019-06-08T12:57:33.126Z,40.67
2019-06-08T13:02:38.431Z,40.72
2019-06-08T13:07:41.165Z,40.08
2019-06-08T13:12:43.877Z,39.89
2019-06-08T13:17:47.740Z,40.54
2019-06-08T13:22:51.215Z,39.57
2019-06-08T13:27:53.931Z,39.70
2019-06-08T13:32:58.087Z,39.24
2019-06-08T13:38:02.007Z,39.14
2019-06-08T13:43:04.714Z,39.58
2019-06-08T13:48:08.923Z,39.96
2019-06-08T13:53:12.579Z,39.38
2019-06-08T13:58:15.324Z,39.97
2019-06-08T14:03:18.716Z,39.82
2019-06-08T14:08:24.158Z,40.32
2019-06-08T14:13:33.867Z,40.92
2019-06-08T14:18:34.050Z,40.34
2019-06-08T14:23:41.115Z,40.94
2019-06-08T14:28:41.160Z,40.74
2019-06-08T14:33:43.912Z,40.45
2019-06-08T14:38:49.113Z,40.26
2019-06-08T14:43:51.220Z,39.52
2019-06-08T14:48:53.947Z,38.80
2019-06-08T14:53:58.270Z,38.49
2019-06-08T14:59:03.909Z,37.90
2019-06-08T15:04:10.712Z,37.92
2019-06-08T15:09:17.697Z,38.50
2019-06-08T15:14:21.862Z,38.70
2019-06-08T15:19:27.028Z,39.55
2019-06-08T15:24:33.137Z,38.92
2019-06-08T15:29:39.176Z,39.22
2019-06-08T15:34:44.072Z,39.61
2019-06-08T15:40:09.429Z,39.33
2019-06-08T15:45:22.293Z,38.76
2019-06-08T15:50:32.688Z,38.48
2019-06-08T15:55:40.152Z,38.58
2019-06-08T16:00:44.513Z,37.89
2019-06-08T16:05:49.404Z,38.05
2019-06-08T16:10:53.627Z,38.70
2019-06-08T16:15:59.077Z,37.78
2019-06-08T16:21:04.408Z,38.19
2019-06-08T16:26:08.909Z,39.03
2019-06-08T16:31:13.244Z,40.49
2019-06-08T16:36:19.122Z,40.37
2019-06-08T16:41:24.486Z,40.22
2019-06-08T16:46:30.032Z,40.06
2019-06-08T16:51:37.076Z,39.56
2019-06-08T16:56:43.213Z,39.68
2019-06-08T17:01:46.208Z,39.72
2019-06-08T17:06:48.922Z,38.57
2019-06-08T17:11:52.525Z,39.81
2019-06-08T17:16:55.291Z,40.06
2019-06-08T17:21:58.020Z,40.31
2019-06-08T17:27:00.905Z,41.11
2019-06-08T17:32:03.778Z,41.56
2019-06-08T17:37:06.568Z,42.12
2019-06-08T17:42:09.304Z,42.67
2019-06-08T17:47:12.107Z,42.87
2019-06-08T17:52:14.868Z,42.29
2019-06-08T17:57:17.584Z,43.18
2019-06-08T18:02:27.284Z,48.00
2019-06-08T18:07:27.632Z,58.28
2019-06-08T18:12:36.914Z,62.65
2019-06-08T18:17:53.635Z,63.52
2019-06-08T18:22:58.973Z,63.98
2019-06-08T18:28:09.890Z,61.90
2019-06-08T18:33:08.366Z,60.67
2019-06-08T18:38:11.576Z,59.86
2019-06-08T18:43:16.939Z,59.51
2019-06-08T18:48:22.817Z,58.72
2019-06-08T18:53:27.736Z,58.56
2019-06-08T18:58:30.629Z,57.64
2019-06-08T19:03:33.357Z,57.83
2019-06-08T19:08:39.207Z,57.34
2019-06-08T19:13:41.279Z,57.30
2019-06-08T19:18:52.714Z,57.55
2019-06-08T19:24:01.362Z,57.96
2019-06-08T19:29:10.537Z,57.62
2019-06-08T19:34:18.130Z,57.60
2019-06-08T19:39:57.717Z,58.18
2019-06-08T19:45:08.808Z,58.09
2019-06-08T19:50:21.369Z,58.00
2019-06-08T19:55:45.449Z,58.41
2019-06-08T20:00:59.408Z,58.45
2019-06-08T20:06:02.275Z,59.06
2019-06-08T20:11:08.117Z,59.13
2019-06-08T20:16:11.583Z,59.74
2019-06-08T20:21:14.357Z,59.65
2019-06-08T20:26:17.399Z,59.01
2019-06-08T20:31:20.196Z,59.34
2019-06-08T20:36:22.907Z,59.24
2019-06-08T20:41:27.621Z,59.40
2019-06-08T20:46:30.267Z,59.52
2019-06-08T20:51:33.085Z,59.69
2019-06-08T20:56:37.241Z,59.96
2019-06-08T21:01:43.656Z,60.23
2019-06-08T21:12:19.285Z,60.20
2019-06-08T21:17:24.747Z,59.64
2019-06-08T21:22:28.524Z,59.45
2019-06-08T21:27:31.226Z,59.45
2019-06-08T21:32:33.954Z,59.88
2019-06-08T21:37:37.676Z,60.25
2019-06-08T21:42:40.592Z,60.53
2019-06-08T21:47:43.320Z,61.35
2019-06-08T21:52:48.657Z,62.19
2019-06-08T21:57:52.667Z,62.65
2019-06-08T22:02:58.459Z,62.78
2019-06-08T22:08:01.348Z,63.03
2019-06-08T22:13:12.592Z,63.27
2019-06-08T22:18:21.552Z,63.49
2019-06-08T22:23:24.268Z,63.75
2019-06-08T22:28:27.114Z,64.29
2019-06-08T22:33:34.315Z,64.49
2019-06-08T22:38:37.707Z,64.39
2019-06-08T22:43:40.409Z,64.39
2019-06-08T22:48:43.286Z,64.62
2019-06-08T22:53:47.857Z,65.06
2019-06-08T22:58:50.629Z,64.83
2019-06-08T23:03:53.627Z,64.65
2019-06-08T23:09:00.722Z,64.92
2019-06-08T23:14:04.381Z,64.87
2019-06-08T23:19:08.033Z,64.60
2019-06-08T23:24:10.915Z,64.37
2019-06-08T23:29:40.563Z,64.55
2019-06-08T23:34:54.972Z,64.62
2019-06-08T23:40:02.586Z,64.81
2019-06-08T23:45:10.347Z,65.11
2019-06-08T23:50:27.241Z,65.08
2019-06-08T23:55:31.071Z,65.23
